createdAt,value
2022-11-14T00:00:52.457Z,70.27
2022-11-14T00:03:40.540Z,68.66
2022-11-14T00:06:27.115Z,68.94
2022-11-14T00:09:13.881Z,68.95
2022-11-14T00:12:00.382Z,68.22
2022-11-14T00:14:47.085Z,68.22
2022-11-14T00:17:33.402Z,68.22
2022-11-14T00:20:21.157Z,67.92
2022-11-14T00:23:07.711Z,67.94
2022-11-14T00:25:54.154Z,68.09
2022-11-14T00:28:40.384Z,68.94
2022-11-14T00:31:26.478Z,69.20
2022-11-14T00:34:12.891Z,69.60
2022-11-14T00:37:00.883Z,70.70
2022-11-14T00:39:47.455Z,70.33
2022-11-14T00:42:34.604Z,70.39
2022-11-14T00:45:21.256Z,70.54
2022-11-14T00:48:07.689Z,70.32
2022-11-14T00:50:54.072Z,70.61
2022-11-14T00:53:41.749Z,71.05
2022-11-14T00:56:28.045Z,70.29
2022-11-14T00:59:14.435Z,69.87
2022-11-14T01:02:01.711Z,69.46
2022-11-14T01:04:48.488Z,68.85
2022-11-14T01:07:34.668Z,68.13
2022-11-14T01:10:23.281Z,67.70
2022-11-14T01:13:09.971Z,67.52
2022-11-14T01:15:56.489Z,67.55
2022-11-14T01:18:43.004Z,67.04
2022-11-14T01:21:29.343Z,67.69
2022-11-14T01:24:15.852Z,67.80
2022-11-14T01:27:04.098Z,68.31
2022-11-14T01:29:50.342Z,68.79
2022-11-14T01:32:36.490Z,69.69
2022-11-14T01:35:23.019Z,70.74
2022-11-14T01:38:13.599Z,71.28
2022-11-14T01:41:00.169Z,70.41
2022-11-14T01:43:48.134Z,68.94
2022-11-14T01:46:36.465Z,70.48
2022-11-14T01:49:26.245Z,71.17
2022-11-14T01:52:15.967Z,70.98
2022-11-14T01:55:04.487Z,71.13
2022-11-14T01:57:50.985Z,72.19
2022-11-14T02:00:39.048Z,72.45
2022-11-14T02:03:25.489Z,72.37
2022-11-14T02:06:15.442Z,73.06
2022-11-14T02:09:05.181Z,73.44
2022-11-14T02:11:51.916Z,73.61
2022-11-14T02:14:39.082Z,72.84
2022-11-14T02:17:30.513Z,73.13
2022-11-14T02:20:22.350Z,73.67
2022-11-14T02:23:08.485Z,73.33
2022-11-14T02:25:55.543Z,73.26
2022-11-14T02:28:41.809Z,73.61
2022-11-14T02:31:28.092Z,74.45
2022-11-14T02:34:16.808Z,74.17
2022-11-14T02:37:04.778Z,73.34
2022-11-14T02:39:51.248Z,72.65
2022-11-14T02:42:37.693Z,71.87
2022-11-14T02:45:24.558Z,71.67
2022-11-14T02:48:11.104Z,71.61
2022-11-14T02:50:57.726Z,71.58
2022-11-14T02:53:45.528Z,72.47
2022-11-14T02:56:31.788Z,72.76
2022-11-14T02:59:18.269Z,73.68
2022-11-14T03:02:05.290Z,73.38
2022-11-14T03:04:51.987Z,72.80
2022-11-14T03:07:38.274Z,72.59
2022-11-14T03:10:26.400Z,73.24
2022-11-14T03:13:12.995Z,73.68
2022-11-14T03:15:59.414Z,74.15
2022-11-14T03:18:45.913Z,74.14
2022-11-14T03:21:32.583Z,74.00
2022-11-14T03:24:18.928Z,74.53
2022-11-14T03:27:07.014Z,74.02
2022-11-14T03:29:53.131Z,73.85
2022-11-14T03:32:39.459Z,72.84
2022-11-14T03:35:26.045Z,72.60
2022-11-14T03:38:12.799Z,73.26
2022-11-14T03:41:00.125Z,74.09
2022-11-14T03:43:48.118Z,74.39
2022-11-14T03:46:34.360Z,74.32
2022-11-14T03:49:20.847Z,74.13
2022-11-14T03:52:07.338Z,73.94
2022-11-14T03:54:54.145Z,74.26
2022-11-14T03:57:40.317Z,74.02
2022-11-14T04:00:28.847Z,74.02
2022-11-14T04:03:15.486Z,73.88
2022-11-14T04:06:03.145Z,73.35
2022-11-14T04:08:49.402Z,72.67
2022-11-14T04:11:36.033Z,71.80
2022-11-14T04:14:22.420Z,71.57
2022-11-14T04:17:10.641Z,71.18
2022-11-14T04:19:57.136Z,71.34
2022-11-14T04:22:43.621Z,71.25
2022-11-14T04:25:30.264Z,71.36
2022-11-14T04:28:17.087Z,71.73
2022-11-14T04:31:03.622Z,72.60
2022-11-14T04:33:51.610Z,72.47
2022-11-14T04:36:38.077Z,71.56
2022-11-14T04:39:24.730Z,71.66
2022-11-14T04:42:11.232Z,71.85
2022-11-14T04:44:57.890Z,72.22
2022-11-14T04:47:44.255Z,72.47
2022-11-14T04:50:32.076Z,72.76
2022-11-14T04:53:18.644Z,72.83
2022-11-14T04:56:05.439Z,72.94
2022-11-14T04:58:51.675Z,72.68
2022-11-14T05:01:37.957Z,72.33
2022-11-14T05:04:24.575Z,72.15
2022-11-14T05:07:12.434Z,72.08
2022-11-14T05:09:58.995Z,72.42
2022-11-14T05:12:45.486Z,72.88
2022-11-14T05:15:31.985Z,100.00
2022-11-14T05:18:18.489Z,100.00
2022-11-14T05:21:05.470Z,100.00
2022-11-14T05:23:53.003Z,100.00
2022-11-14T05:26:39.698Z,72.88
2022-11-14T05:29:26.172Z,72.59
2022-11-14T05:32:16.280Z,72.33
2022-11-14T05:35:03.194Z,72.30
2022-11-14T05:37:49.418Z,72.50
2022-11-14T05:40:38.475Z,72.46
2022-11-14T05:43:24.943Z,72.89
2022-11-14T05:46:12.728Z,72.98
2022-11-14T05:48:59.004Z,73.56
2022-11-14T05:51:45.258Z,73.45
2022-11-14T05:54:31.893Z,73.46
2022-11-14T05:57:20.048Z,72.99
2022-11-14T06:00:07.055Z,73.53
2022-11-14T06:02:53.969Z,73.72
2022-11-14T06:05:40.386Z,73.97
2022-11-14T06:08:26.984Z,73.84
2022-11-14T06:11:15.958Z,74.20
2022-11-14T06:14:08.193Z,74.54
2022-11-14T06:16:57.160Z,73.88
2022-11-14T06:19:43.884Z,74.49
2022-11-14T06:22:30.386Z,74.29
2022-11-14T06:25:17.001Z,73.29
2022-11-14T06:28:03.508Z,73.17
2022-11-14T06:30:51.222Z,71.93
2022-11-14T06:33:38.525Z,71.49
2022-11-14T06:36:25.018Z,71.08
2022-11-14T06:39:11.863Z,68.92
2022-11-14T06:41:58.445Z,68.14
2022-11-14T06:44:45.103Z,68.72
2022-11-14T06:47:32.855Z,67.71
2022-11-14T06:50:19.357Z,67.53
2022-11-14T06:53:05.775Z,67.75
2022-11-14T06:55:56.499Z,67.95
2022-11-14T06:58:44.922Z,67.65
2022-11-14T07:01:31.368Z,67.68
2022-11-14T07:04:19.208Z,67.23
2022-11-14T07:07:05.542Z,67.56
2022-11-14T07:09:52.129Z,67.58
2022-11-14T07:12:38.551Z,67.60
2022-11-14T07:15:25.338Z,66.86
2022-11-14T07:18:12.210Z,67.73
2022-11-14T07:21:01.022Z,67.58
2022-11-14T07:23:47.607Z,67.60
2022-11-14T07:26:34.186Z,67.33
2022-11-14T07:29:21.068Z,67.40
2022-11-14T07:32:07.423Z,66.74
2022-11-14T07:34:57.855Z,66.83
2022-11-14T07:37:50.176Z,67.32
2022-11-14T07:40:36.692Z,67.40
2022-11-14T07:43:23.401Z,67.46
2022-11-14T07:46:12.654Z,67.37
2022-11-14T07:48:59.021Z,67.31
2022-11-14T07:51:45.220Z,67.55
2022-11-14T07:54:33.290Z,67.65
2022-11-14T07:57:19.984Z,67.50
2022-11-14T08:00:07.517Z,67.18
2022-11-14T08:02:54.338Z,67.06
2022-11-14T08:05:41.610Z,66.55
2022-11-14T08:08:28.550Z,66.07
2022-11-14T08:11:37.367Z,65.26
2022-11-14T08:14:23.784Z,65.38
2022-11-14T08:17:10.384Z,65.43
2022-11-14T08:19:56.769Z,65.00
2022-11-14T08:22:43.016Z,64.44
2022-11-14T08:25:29.509Z,64.60
2022-11-14T08:28:17.489Z,64.14
2022-11-14T08:31:05.139Z,63.37
2022-11-14T08:33:53.217Z,63.20
2022-11-14T08:36:39.927Z,62.53
2022-11-14T08:39:26.405Z,62.43
2022-11-14T08:42:13.043Z,61.62
2022-11-14T08:45:01.010Z,61.23
2022-11-14T08:47:52.431Z,60.71
2022-11-14T08:50:39.432Z,59.96
2022-11-14T08:53:25.785Z,59.18
2022-11-14T08:56:12.457Z,58.06
2022-11-14T08:58:59.658Z,57.40
2022-11-14T09:01:47.552Z,57.89
2022-11-14T09:04:34.365Z,56.86
2022-11-14T09:07:21.161Z,55.67
2022-11-14T09:10:08.604Z,54.84
2022-11-14T09:12:57.018Z,54.00
2022-11-14T09:15:43.740Z,53.42
2022-11-14T09:18:32.440Z,53.28
2022-11-14T09:21:19.465Z,52.39
2022-11-14T09:24:06.567Z,51.72
2022-11-14T09:26:56.737Z,51.38
2022-11-14T09:29:43.770Z,51.65
2022-11-14T09:32:30.037Z,53.37
2022-11-14T09:35:18.194Z,54.34
2022-11-14T09:38:05.637Z,53.80
2022-11-14T09:41:00.293Z,52.65
2022-11-14T09:44:11.096Z,52.65
2022-11-14T09:46:59.414Z,52.04
2022-11-14T09:49:47.310Z,51.31
2022-11-14T09:52:37.671Z,50.47
2022-11-14T09:55:27.813Z,49.29
2022-11-14T09:58:20.177Z,50.24
2022-11-14T10:01:09.774Z,51.68
2022-11-14T10:04:09.138Z,52.66
2022-11-14T10:07:01.179Z,53.16
2022-11-14T10:09:59.930Z,54.29
2022-11-14T10:12:55.357Z,54.73
2022-11-14T10:15:47.529Z,54.81
2022-11-14T10:18:45.652Z,54.46
2022-11-14T10:21:39.837Z,53.21
2022-11-14T10:24:36.910Z,52.92
2022-11-14T10:27:29.204Z,52.59
2022-11-14T10:30:17.304Z,52.86
2022-11-14T10:33:14.077Z,52.66
2022-11-14T10:36:06.750Z,52.08
2022-11-14T10:38:56.307Z,53.15
2022-11-14T10:41:56.713Z,54.91
2022-11-14T10:44:53.205Z,52.54
2022-11-14T10:47:42.137Z,50.82
2022-11-14T10:50:34.944Z,51.29
2022-11-14T10:53:28.200Z,51.46
2022-11-14T10:56:14.768Z,53.26
2022-11-14T10:59:01.162Z,52.47
2022-11-14T11:01:55.493Z,51.37
2022-11-14T11:04:43.099Z,48.37
2022-11-14T11:07:49.221Z,46.48
2022-11-14T11:10:57.353Z,47.19
2022-11-14T11:13:52.766Z,44.83
2022-11-14T11:16:39.152Z,42.69
2022-11-14T11:19:30.850Z,36.94
2022-11-14T11:22:29.855Z,28.98
2022-11-14T11:25:34.371Z,26.07
2022-11-14T11:28:21.845Z,23.97
2022-11-14T11:31:09.488Z,25.31
2022-11-14T11:33:56.185Z,27.02
2022-11-14T11:36:49.143Z,28.28
2022-11-14T11:39:39.168Z,29.53
2022-11-14T11:43:06.266Z,29.07
2022-11-14T11:45:36.231Z,32.11
2022-11-14T11:48:24.434Z,33.27
2022-11-14T11:51:17.396Z,30.42
2022-11-14T11:54:08.442Z,35.56
2022-11-14T11:56:58.401Z,32.79
2022-11-14T11:59:47.774Z,37.65
2022-11-14T12:02:34.216Z,35.47
2022-11-14T12:05:27.327Z,32.70
2022-11-14T12:08:21.904Z,31.23
2022-11-14T12:11:13.397Z,30.94
2022-11-14T12:14:10.158Z,35.58
2022-11-14T12:17:14.793Z,37.37
2022-11-14T12:20:18.800Z,33.77
2022-11-14T12:23:35.114Z,37.20
2022-11-14T12:26:37.196Z,39.19
2022-11-14T12:29:37.760Z,40.67
2022-11-14T12:32:29.664Z,41.50
2022-11-14T12:35:19.953Z,39.63
2022-11-14T12:38:14.925Z,37.81
2022-11-14T12:41:03.203Z,35.25
2022-11-14T12:43:51.120Z,36.67
2022-11-14T12:47:11.292Z,39.77
2022-11-14T12:50:07.179Z,41.96
2022-11-14T12:52:54.870Z,43.65
2022-11-14T12:56:06.965Z,44.11
2022-11-14T12:59:18.734Z,42.28
2022-11-14T13:02:39.498Z,42.94
2022-11-14T13:05:42.279Z,43.27
2022-11-14T13:08:54.661Z,43.01
2022-11-14T13:12:01.118Z,43.16
2022-11-14T13:15:10.562Z,44.20
2022-11-14T13:18:23.555Z,45.59
2022-11-14T13:21:45.093Z,44.61
2022-11-14T13:25:05.460Z,37.65
2022-11-14T13:28:14.635Z,32.57
2022-11-14T13:31:20.591Z,34.83
2022-11-14T13:34:40.939Z,38.35
2022-11-14T13:37:41.464Z,39.24
2022-11-14T13:40:32.518Z,41.35
2022-11-14T13:43:24.125Z,42.35
2022-11-14T13:46:22.065Z,43.71
2022-11-14T13:49:30.638Z,44.47
2022-11-14T13:52:18.016Z,47.71
2022-11-14T13:55:04.734Z,49.26
2022-11-14T13:58:05.695Z,50.75
2022-11-14T14:01:06.996Z,52.48
2022-11-14T14:04:18.797Z,53.11
2022-11-14T14:07:13.005Z,52.05
2022-11-14T14:10:04.760Z,53.53
2022-11-14T14:13:00.653Z,52.03
2022-11-14T14:15:51.467Z,49.57
2022-11-14T14:18:46.002Z,48.84
2022-11-14T14:21:40.377Z,48.34
2022-11-14T14:24:39.795Z,47.65
2022-11-14T14:27:29.894Z,48.44
2022-11-14T14:30:18.260Z,50.46
2022-11-14T14:33:11.237Z,52.09
2022-11-14T14:35:57.708Z,53.92
2022-11-14T14:38:45.806Z,54.49
2022-11-14T14:41:32.958Z,55.46
2022-11-14T14:44:25.003Z,56.30
2022-11-14T14:47:16.730Z,57.57
2022-11-14T14:50:05.059Z,58.10
2022-11-14T14:52:57.383Z,57.58
2022-11-14T14:55:53.181Z,57.66
2022-11-14T14:58:39.638Z,57.86
2022-11-14T15:01:29.929Z,58.04
2022-11-14T15:04:17.549Z,58.40
2022-11-14T15:07:05.242Z,58.38
2022-11-14T15:09:56.605Z,59.22
2022-11-14T15:12:44.764Z,59.66
2022-11-14T15:15:31.817Z,59.63
2022-11-14T15:18:24.688Z,59.29
2022-11-14T15:21:14.580Z,58.61
2022-11-14T15:24:02.759Z,57.82
2022-11-14T15:26:50.783Z,57.66
2022-11-14T15:29:46.497Z,58.11
2022-11-14T15:32:33.671Z,58.65
2022-11-14T15:35:29.408Z,57.77
2022-11-14T15:41:30.708Z,54.29
2022-11-14T15:44:30.620Z,53.66
2022-11-14T15:47:23.717Z,54.71
2022-11-14T15:50:25.049Z,54.85
2022-11-14T15:53:21.524Z,54.90
2022-11-14T15:56:11.129Z,55.50
2022-11-14T15:58:57.458Z,55.28
2022-11-14T16:01:44.572Z,55.45
2022-11-14T16:04:35.162Z,55.36
2022-11-14T16:07:21.458Z,55.23
2022-11-14T16:10:15.274Z,55.42
2022-11-14T16:13:01.816Z,55.48
2022-11-14T16:15:47.968Z,55.21
2022-11-14T16:18:34.214Z,55.42
2022-11-14T16:21:23.208Z,55.60
2022-11-14T16:24:15.931Z,55.70
2022-11-14T16:27:02.582Z,56.09
2022-11-14T16:29:49.051Z,55.81
2022-11-14T16:32:35.242Z,56.26
2022-11-14T16:35:23.088Z,56.48
2022-11-14T16:38:13.593Z,56.57
2022-11-14T16:41:00.313Z,56.60
2022-11-14T16:43:46.753Z,56.64
2022-11-14T16:46:33.313Z,56.48
2022-11-14T16:49:20.043Z,56.93
2022-11-14T16:52:08.627Z,57.27
2022-11-14T16:54:56.400Z,56.77
2022-11-14T16:57:42.752Z,56.96
2022-11-14T17:00:28.897Z,56.93
2022-11-14T17:03:15.495Z,56.96
2022-11-14T17:06:02.054Z,56.94
2022-11-14T17:08:48.239Z,57.19
2022-11-14T17:11:36.031Z,55.80
2022-11-14T17:14:22.602Z,55.29
2022-11-14T17:17:08.910Z,54.98
2022-11-14T17:19:55.122Z,56.03
2022-11-14T17:22:41.397Z,57.22
2022-11-14T17:25:28.048Z,57.62
2022-11-14T17:28:15.629Z,57.31
2022-11-14T17:31:02.037Z,59.33
2022-11-14T17:33:52.021Z,59.87
2022-11-14T17:36:38.283Z,60.01
2022-11-14T17:39:24.607Z,60.75
2022-11-14T17:42:10.986Z,61.65
2022-11-14T17:45:00.827Z,62.55
2022-11-14T17:47:47.295Z,62.76
2022-11-14T17:50:37.563Z,62.39
2022-11-14T17:53:24.367Z,63.65
2022-11-14T17:56:11.400Z,63.32
2022-11-14T17:58:57.832Z,63.46
2022-11-14T18:01:45.663Z,63.25
2022-11-14T18:04:32.103Z,63.27
2022-11-14T18:07:20.537Z,63.08
2022-11-14T18:10:07.784Z,62.20
2022-11-14T18:12:54.156Z,61.76
2022-11-14T18:15:40.362Z,61.72
2022-11-14T18:18:28.178Z,61.76
2022-11-14T18:21:15.917Z,61.81
2022-11-14T18:24:02.364Z,61.91
2022-11-14T18:26:48.702Z,62.29
2022-11-14T18:29:34.904Z,61.83
2022-11-14T18:32:21.178Z,62.32
2022-11-14T18:35:10.375Z,62.36
2022-11-14T18:37:56.731Z,62.74
2022-11-14T18:40:44.516Z,62.65
2022-11-14T18:43:32.446Z,61.26
2022-11-14T18:46:21.604Z,63.31
2022-11-14T18:49:08.724Z,62.96
2022-11-14T18:51:56.867Z,63.61
2022-11-14T18:54:43.201Z,63.63
2022-11-14T18:57:29.647Z,64.22
2022-11-14T19:00:18.150Z,63.86
2022-11-14T19:03:06.397Z,63.60
2022-11-14T19:05:52.941Z,63.41
2022-11-14T19:08:40.702Z,63.85
2022-11-14T19:11:44.622Z,63.70
2022-11-14T19:14:31.081Z,64.19
2022-11-14T19:17:20.692Z,65.19
2022-11-14T19:20:14.019Z,66.07
2022-11-14T19:23:00.731Z,65.64
2022-11-14T19:25:48.268Z,65.32
2022-11-14T19:28:34.579Z,65.12
2022-11-14T19:31:21.588Z,65.19
2022-11-14T19:34:08.176Z,64.71
2022-11-14T19:37:02.038Z,64.84
2022-11-14T19:39:52.296Z,64.33
2022-11-14T19:42:40.206Z,64.04
2022-11-14T19:45:26.553Z,64.17
2022-11-14T19:48:12.673Z,63.93
2022-11-14T19:51:03.050Z,64.21
2022-11-14T19:53:49.979Z,64.13
2022-11-14T19:56:36.388Z,63.89
2022-11-14T19:59:24.762Z,64.18
2022-11-14T20:02:13.762Z,63.59
2022-11-14T20:05:00.178Z,63.26
2022-11-14T20:07:46.657Z,62.80
2022-11-14T20:10:47.288Z,63.62
2022-11-14T20:13:35.762Z,63.85
2022-11-14T20:16:24.717Z,63.07
2022-11-14T20:19:11.849Z,63.17
2022-11-14T20:21:58.492Z,61.45
2022-11-14T20:24:44.737Z,62.02
2022-11-14T20:27:31.038Z,64.47
2022-11-14T20:30:17.372Z,64.11
2022-11-14T20:33:05.834Z,63.06
2022-11-14T20:35:52.261Z,64.88
2022-11-14T20:38:38.889Z,64.89
2022-11-14T20:41:25.477Z,64.70
2022-11-14T20:44:12.072Z,64.27
2022-11-14T20:46:58.320Z,64.00
2022-11-14T20:49:46.900Z,65.07
2022-11-14T20:52:33.641Z,65.80
2022-11-14T20:55:19.927Z,66.13
2022-11-14T20:58:06.408Z,66.68
2022-11-14T21:00:53.310Z,66.28
2022-11-14T21:03:39.851Z,66.69
2022-11-14T21:06:27.729Z,66.77
2022-11-14T21:09:14.259Z,67.30
2022-11-14T21:12:00.652Z,67.32
2022-11-14T21:14:46.802Z,66.62
2022-11-14T21:17:33.173Z,65.82
2022-11-14T21:20:19.371Z,65.69
2022-11-14T21:23:07.051Z,64.84
2022-11-14T21:25:53.341Z,64.43
2022-11-14T21:28:40.984Z,64.39
2022-11-14T21:31:31.614Z,64.68
2022-11-14T21:34:18.529Z,64.59
2022-11-14T21:37:04.716Z,64.75
2022-11-14T21:39:52.228Z,65.40
2022-11-14T21:42:39.739Z,65.30
2022-11-14T21:45:26.460Z,66.06
2022-11-14T21:48:12.914Z,65.14
2022-11-14T21:51:06.888Z,65.24
2022-11-14T21:53:55.388Z,66.35
2022-11-14T21:56:43.059Z,65.71
2022-11-14T21:59:30.648Z,64.12
2022-11-14T22:02:34.500Z,63.45
2022-11-14T22:05:21.054Z,63.41
2022-11-14T22:08:07.249Z,63.54
2022-11-14T22:10:53.352Z,63.83
2022-11-14T22:13:40.993Z,64.36
2022-11-14T22:16:27.277Z,64.43
2022-11-14T22:19:13.512Z,64.32
2022-11-14T22:21:59.707Z,64.59
2022-11-14T22:24:46.012Z,64.76
2022-11-14T22:27:32.108Z,65.19
2022-11-14T22:30:19.817Z,65.70
2022-11-14T22:33:06.022Z,66.52
2022-11-14T22:35:52.204Z,67.20
2022-11-14T22:38:39.188Z,67.45
2022-11-14T22:41:31.907Z,67.96
2022-11-14T22:44:19.005Z,68.62
2022-11-14T22:47:06.638Z,69.13
2022-11-14T22:49:52.898Z,70.01
2022-11-14T22:52:39.150Z,70.43
2022-11-14T22:55:25.175Z,71.99
2022-11-14T22:58:11.406Z,72.93
2022-11-14T23:00:57.545Z,73.05
2022-11-14T23:03:45.245Z,73.40
2022-11-14T23:06:33.576Z,73.90
2022-11-14T23:09:20.270Z,74.62
2022-11-14T23:12:07.263Z,75.32
2022-11-14T23:14:53.407Z,75.33
2022-11-14T23:17:39.690Z,75.62
2022-11-14T23:20:27.820Z,75.10
2022-11-14T23:23:15.617Z,75.05
2022-11-14T23:26:05.484Z,75.50
2022-11-14T23:28:51.624Z,75.50
2022-11-14T23:31:37.945Z,75.86
2022-11-14T23:34:24.493Z,74.71
2022-11-14T23:37:12.087Z,74.63
2022-11-14T23:39:58.393Z,74.72
2022-11-14T23:42:44.448Z,75.20
2022-11-14T23:45:31.179Z,75.40
2022-11-14T23:48:17.894Z,75.70
2022-11-14T23:51:04.186Z,75.42
2022-11-14T23:53:51.947Z,74.61
2022-11-14T23:56:38.168Z,75.63
2022-11-14T23:59:24.410Z,76.08
